sensor_id;sensor_type;location;lat;lon;timestamp;pressure;altitude;pressure_sealevel;temperature;humidity
15604;BME280;7902;49.042;9.092;2022-07-11T00:02:06;99740.03;;;21.85;47.57
15604;BME280;7902;49.042;9.092;2022-07-11T00:04:33;99743.88;;;21.91;47.44
15604;BME280;7902;49.042;9.092;2022-07-11T00:07:00;99737.06;;;21.88;47.55
15604;BME280;7902;49.042;9.092;2022-07-11T00:09:27;99738.75;;;21.98;47.39
15604;BME280;7902;49.042;9.092;2022-07-11T00:11:53;99740.22;;;21.92;47.98
15604;BME280;7902;49.042;9.092;2022-07-11T00:14:19;99728.00;;;21.81;47.81
15604;BME280;7902;49.042;9.092;2022-07-11T00:16:45;99722.50;;;21.83;47.97
15604;BME280;7902;49.042;9.092;2022-07-11T00:19:11;99724.34;;;21.74;48.05
15604;BME280;7902;49.042;9.092;2022-07-11T00:21:37;99729.03;;;21.88;47.79
15604;BME280;7902;49.042;9.092;2022-07-11T00:24:03;99729.00;;;21.80;48.52
15604;BME280;7902;49.042;9.092;2022-07-11T00:26:29;99726.19;;;21.74;48.14
15604;BME280;7902;49.042;9.092;2022-07-11T00:28:55;99728.50;;;21.77;48.09
15604;BME280;7902;49.042;9.092;2022-07-11T00:31:21;99723.81;;;21.71;48.34
15604;BME280;7902;49.042;9.092;2022-07-11T00:33:47;99717.84;;;21.69;48.25
15604;BME280;7902;49.042;9.092;2022-07-11T00:36:13;99722.84;;;21.80;48.17
15604;BME280;7902;49.042;9.092;2022-07-11T00:38:40;99716.81;;;21.78;48.24
15604;BME280;7902;49.042;9.092;2022-07-11T00:41:06;99719.66;;;21.76;48.24
15604;BME280;7902;49.042;9.092;2022-07-11T00:43:37;99710.81;;;21.68;48.86
15604;BME280;7902;49.042;9.092;2022-07-11T00:46:04;99709.97;;;21.67;48.46
15604;BME280;7902;49.042;9.092;2022-07-11T00:48:31;99709.13;;;21.67;48.78
15604;BME280;7902;49.042;9.092;2022-07-11T00:50:58;99708.63;;;21.71;48.63
15604;BME280;7902;49.042;9.092;2022-07-11T00:53:24;99701.47;;;21.80;48.57
15604;BME280;7902;49.042;9.092;2022-07-11T00:55:54;99708.97;;;21.76;48.69
15604;BME280;7902;49.042;9.092;2022-07-11T00:58:20;99706.97;;;21.78;48.31
15604;BME280;7902;49.042;9.092;2022-07-11T01:00:45;99707.63;;;21.72;48.48
15604;BME280;7902;49.042;9.092;2022-07-11T01:03:12;99702.44;;;21.71;48.51
15604;BME280;7902;49.042;9.092;2022-07-11T01:05:37;99703.13;;;21.73;48.53
15604;BME280;7902;49.042;9.092;2022-07-11T01:08:04;99701.28;;;21.73;48.82
15604;BME280;7902;49.042;9.092;2022-07-11T01:10:31;99698.13;;;21.70;48.83
15604;BME280;7902;49.042;9.092;2022-07-11T01:12:58;99692.91;;;21.52;49.33
15604;BME280;7902;49.042;9.092;2022-07-11T01:15:24;99697.59;;;21.58;49.28
15604;BME280;7902;49.042;9.092;2022-07-11T01:17:50;99700.13;;;21.68;48.84
15604;BME280;7902;49.042;9.092;2022-07-11T01:20:20;99696.78;;;21.66;49.18
15604;BME280;7902;49.042;9.092;2022-07-11T01:22:51;99694.59;;;21.61;49.32
15604;BME280;7902;49.042;9.092;2022-07-11T01:25:18;99695.44;;;21.62;49.38
15604;BME280;7902;49.042;9.092;2022-07-11T01:28:01;99685.44;;;21.56;49.79
15604;BME280;7902;49.042;9.092;2022-07-11T01:30:28;99687.06;;;21.49;49.82
15604;BME280;7902;49.042;9.092;2022-07-11T01:32:55;99689.75;;;21.49;50.18
15604;BME280;7902;49.042;9.092;2022-07-11T01:35:22;99687.06;;;21.57;49.77
15604;BME280;7902;49.042;9.092;2022-07-11T01:37:48;99684.09;;;21.52;49.81
15604;BME280;7902;49.042;9.092;2022-07-11T01:40:15;99687.75;;;21.51;50.09
15604;BME280;7902;49.042;9.092;2022-07-11T01:42:41;99687.75;;;21.67;49.72
15604;BME280;7902;49.042;9.092;2022-07-11T01:45:09;99683.41;;;21.58;49.83
15604;BME280;7902;49.042;9.092;2022-07-11T01:47:35;99679.06;;;21.49;50.29
15604;BME280;7902;49.042;9.092;2022-07-11T01:50:02;99687.09;;;21.65;49.66
15604;BME280;7902;49.042;9.092;2022-07-11T01:52:28;99683.06;;;21.44;50.25
15604;BME280;7902;49.042;9.092;2022-07-11T01:54:54;99686.41;;;21.55;50.28
15604;BME280;7902;49.042;9.092;2022-07-11T01:57:20;99683.91;;;21.53;50.25
15604;BME280;7902;49.042;9.092;2022-07-11T01:59:46;99676.88;;;21.44;50.41
15604;BME280;7902;49.042;9.092;2022-07-11T02:02:13;99679.06;;;21.49;50.53
15604;BME280;7902;49.042;9.092;2022-07-11T02:04:39;99680.56;;;21.43;50.66
15604;BME280;7902;49.042;9.092;2022-07-11T02:07:05;99682.41;;;21.51;50.25
15604;BME280;7902;49.042;9.092;2022-07-11T02:09:31;99685.44;;;21.56;50.36
15604;BME280;7902;49.042;9.092;2022-07-11T02:11:57;99682.41;;;21.51;50.54
15604;BME280;7902;49.042;9.092;2022-07-11T02:14:23;99684.41;;;21.49;50.49
15604;BME280;7902;49.042;9.092;2022-07-11T02:16:49;99682.06;;;21.54;50.48
15604;BME280;7902;49.042;9.092;2022-07-11T02:19:15;99682.72;;;21.48;50.69
15604;BME280;7902;49.042;9.092;2022-07-11T02:21:42;99684.41;;;21.49;50.47
15604;BME280;7902;49.042;9.092;2022-07-11T02:24:08;99672.38;;;21.44;50.64
15604;BME280;7902;49.042;9.092;2022-07-11T02:26:35;99680.06;;;21.39;50.99
15604;BME280;7902;49.042;9.092;2022-07-11T02:29:01;99673.38;;;21.35;51.01
15604;BME280;7902;49.042;9.092;2022-07-11T02:31:27;99679.22;;;21.39;51.19
15604;BME280;7902;49.042;9.092;2022-07-11T02:33:53;99685.41;;;21.39;50.88
15604;BME280;7902;49.042;9.092;2022-07-11T02:36:19;99677.56;;;21.38;51.19
15604;BME280;7902;49.042;9.092;2022-07-11T02:38:45;99680.06;;;21.48;51.01
15604;BME280;7902;49.042;9.092;2022-07-11T02:41:11;99680.75;;;21.41;51.15
15604;BME280;7902;49.042;9.092;2022-07-11T02:43:38;99684.75;;;21.45;50.99
15604;BME280;7902;49.042;9.092;2022-07-11T02:46:04;99683.41;;;21.41;50.73
15604;BME280;7902;49.042;9.092;2022-07-11T02:48:31;99684.91;;;21.36;51.17
15604;BME280;7902;49.042;9.092;2022-07-11T02:50:57;99679.41;;;21.37;51.55
15604;BME280;7902;49.042;9.092;2022-07-11T02:53:23;99689.75;;;21.32;51.30
15604;BME280;7902;49.042;9.092;2022-07-11T02:55:49;99682.41;;;21.26;51.67
15604;BME280;7902;49.042;9.092;2022-07-11T02:58:15;99683.22;;;21.27;51.87
15604;BME280;7902;49.042;9.092;2022-07-11T03:00:41;99688.41;;;21.36;51.15
15604;BME280;7902;49.042;9.092;2022-07-11T03:03:07;99686.06;;;21.33;51.42
15604;BME280;7902;49.042;9.092;2022-07-11T03:05:33;99685.75;;;21.36;51.45
15604;BME280;7902;49.042;9.092;2022-07-11T03:07:59;99688.41;;;21.36;51.46
15604;BME280;7902;49.042;9.092;2022-07-11T03:10:25;99686.75;;;21.27;52.00
15604;BME280;7902;49.042;9.092;2022-07-11T03:12:51;99682.06;;;21.29;51.79
15604;BME280;7902;49.042;9.092;2022-07-11T03:15:17;99692.59;;;21.31;51.69
15604;BME280;7902;49.042;9.092;2022-07-11T03:17:43;99689.06;;;21.30;51.98
15604;BME280;7902;49.042;9.092;2022-07-11T03:20:10;99680.38;;;21.28;52.04
15604;BME280;7902;49.042;9.092;2022-07-11T03:22:36;99686.75;;;21.27;52.00
15604;BME280;7902;49.042;9.092;2022-07-11T03:25:03;99677.06;;;21.26;52.10
15604;BME280;7902;49.042;9.092;2022-07-11T03:27:34;99678.06;;;21.25;52.12
15604;BME280;7902;49.042;9.092;2022-07-11T03:30:00;99680.56;;;21.27;52.11
15604;BME280;7902;49.042;9.092;2022-07-11T03:32:26;99673.34;;;21.19;52.37
15604;BME280;7902;49.042;9.092;2022-07-11T03:34:52;99676.72;;;21.21;52.15
15604;BME280;7902;49.042;9.092;2022-07-11T03:37:36;99678.19;;;21.16;52.49
15604;BME280;7902;49.042;9.092;2022-07-11T03:40:02;99684.22;;;21.18;52.17
15604;BME280;7902;49.042;9.092;2022-07-11T03:42:28;99683.69;;;21.14;52.48
15604;BME280;7902;49.042;9.092;2022-07-11T03:44:54;99687.41;;;21.21;52.63
15604;BME280;7902;49.042;9.092;2022-07-11T03:47:20;99689.56;;;21.26;52.14
15604;BME280;7902;49.042;9.092;2022-07-11T03:49:47;99685.22;;;21.17;52.52
15604;BME280;7902;49.042;9.092;2022-07-11T03:52:13;99686.38;;;21.14;52.54
15604;BME280;7902;49.042;9.092;2022-07-11T03:54:39;99683.00;;;21.12;52.81
15604;BME280;7902;49.042;9.092;2022-07-11T03:57:06;99674.19;;;21.20;52.75
15604;BME280;7902;49.042;9.092;2022-07-11T03:59:32;99678.38;;;21.22;52.65
15604;BME280;7902;49.042;9.092;2022-07-11T04:01:58;99680.56;;;21.19;52.79
15604;BME280;7902;49.042;9.092;2022-07-11T04:04:24;99680.50;;;21.11;53.12
15604;BME280;7902;49.042;9.092;2022-07-11T04:06:49;99676.03;;;21.19;52.82
15604;BME280;7902;49.042;9.092;2022-07-11T04:09:15;99676.38;;;21.16;53.17
15604;BME280;7902;49.042;9.092;2022-07-11T04:11:41;99680.56;;;21.19;52.75
15604;BME280;7902;49.042;9.092;2022-07-11T04:14:07;99680.06;;;21.23;52.83
15604;BME280;7902;49.042;9.092;2022-07-11T04:16:34;99684.72;;;21.13;53.03
15604;BME280;7902;49.042;9.092;2022-07-11T04:19:00;99681.72;;;21.16;52.88
15604;BME280;7902;49.042;9.092;2022-07-11T04:21:26;99684.22;;;21.18;52.88
15604;BME280;7902;49.042;9.092;2022-07-11T04:23:52;99679.03;;;21.24;52.54
15604;BME280;7902;49.042;9.092;2022-07-11T04:26:18;99685.72;;;21.20;52.94
15604;BME280;7902;49.042;9.092;2022-07-11T04:28:44;99677.88;;;21.19;52.82
15604;BME280;7902;49.042;9.092;2022-07-11T04:31:10;99678.88;;;21.26;53.10
15604;BME280;7902;49.042;9.092;2022-07-11T04:33:36;99676.38;;;21.24;52.91
15604;BME280;7902;49.042;9.092;2022-07-11T04:36:02;99682.88;;;21.14;53.50
15604;BME280;7902;49.042;9.092;2022-07-11T04:38:28;99685.06;;;21.18;53.30
15604;BME280;7902;49.042;9.092;2022-07-11T04:40:54;99680.06;;;21.23;53.18
15604;BME280;7902;49.042;9.092;2022-07-11T04:43:20;99680.38;;;21.20;53.55
15604;BME280;7902;49.042;9.092;2022-07-11T04:45:46;99670.88;;;21.26;52.89
15604;BME280;7902;49.042;9.092;2022-07-11T04:48:12;99680.72;;;21.33;53.08
15604;BME280;7902;49.042;9.092;2022-07-11T04:50:38;99676.72;;;21.29;53.23
15604;BME280;7902;49.042;9.092;2022-07-11T04:53:04;99684.38;;;21.24;53.23
15604;BME280;7902;49.042;9.092;2022-07-11T04:55:30;99680.56;;;21.27;53.23
15604;BME280;7902;49.042;9.092;2022-07-11T04:57:56;99689.56;;;21.26;52.91
15604;BME280;7902;49.042;9.092;2022-07-11T05:00:22;99688.25;;;21.30;53.13
15604;BME280;7902;49.042;9.092;2022-07-11T05:02:48;99686.41;;;21.30;52.95
15604;BME280;7902;49.042;9.092;2022-07-11T05:05:13;99694.25;;;21.32;52.88
15604;BME280;7902;49.042;9.092;2022-07-11T05:07:39;99690.41;;;21.26;53.63
15604;BME280;7902;49.042;9.092;2022-07-11T05:10:06;99690.75;;;21.23;53.75
15604;BME280;7902;49.042;9.092;2022-07-11T05:12:32;99693.59;;;21.46;52.59
15604;BME280;7902;49.042;9.092;2022-07-11T05:14:58;99685.75;;;21.36;53.04
15604;BME280;7902;49.042;9.092;2022-07-11T05:17:27;99698.44;;;21.34;53.10
15604;BME280;7902;49.042;9.092;2022-07-11T05:19:53;99700.75;;;21.29;53.31
15604;BME280;7902;49.042;9.092;2022-07-11T05:22:19;99698.75;;;21.31;53.57
15604;BME280;7902;49.042;9.092;2022-07-11T05:24:45;99692.75;;;21.29;53.52
15604;BME280;7902;49.042;9.092;2022-07-11T05:27:11;99689.06;;;21.38;53.76
15604;BME280;7902;49.042;9.092;2022-07-11T05:29:37;99704.44;;;21.44;53.18
15604;BME280;7902;49.042;9.092;2022-07-11T05:32:03;99697.94;;;21.39;53.27
15604;BME280;7902;49.042;9.092;2022-07-11T05:34:29;99701.59;;;21.38;53.33
15604;BME280;7902;49.042;9.092;2022-07-11T05:36:55;99704.25;;;21.38;53.36
15604;BME280;7902;49.042;9.092;2022-07-11T05:39:21;99704.25;;;21.38;53.13
15604;BME280;7902;49.042;9.092;2022-07-11T05:41:46;99704.44;;;21.44;53.56
15604;BME280;7902;49.042;9.092;2022-07-11T05:44:12;99705.09;;;21.38;53.26
15604;BME280;7902;49.042;9.092;2022-07-11T05:46:38;99708.31;;;21.42;53.32
15604;BME280;7902;49.042;9.092;2022-07-11T05:49:06;99706.13;;;21.54;52.89
15604;BME280;7902;49.042;9.092;2022-07-11T05:51:32;99713.16;;;21.55;53.25
15604;BME280;7902;49.042;9.092;2022-07-11T05:53:58;99713.97;;;21.63;52.93
15604;BME280;7902;49.042;9.092;2022-07-11T05:56:24;99717.50;;;21.56;53.32
15604;BME280;7902;49.042;9.092;2022-07-11T05:58:51;99715.47;;;21.58;53.69
15604;BME280;7902;49.042;9.092;2022-07-11T06:01:17;99714.47;;;21.51;53.39
15604;BME280;7902;49.042;9.092;2022-07-11T06:03:43;99712.47;;;21.53;52.75
15604;BME280;7902;49.042;9.092;2022-07-11T06:06:09;99707.63;;;21.64;53.05
15604;BME280;7902;49.042;9.092;2022-07-11T06:08:36;99706.97;;;21.62;53.12
15604;BME280;7902;49.042;9.092;2022-07-11T06:11:09;99710.78;;;21.76;52.76
15604;BME280;7902;49.042;9.092;2022-07-11T06:13:37;99712.97;;;21.72;52.65
15604;BME280;7902;49.042;9.092;2022-07-11T06:16:05;99709.28;;;21.81;52.32
15604;BME280;7902;49.042;9.092;2022-07-11T06:18:31;99712.78;;;21.90;52.35
15604;BME280;7902;49.042;9.092;2022-07-11T06:20:57;99715.81;;;21.87;52.21
15604;BME280;7902;49.042;9.092;2022-07-11T06:23:22;99715.81;;;21.87;52.04
15604;BME280;7902;49.042;9.092;2022-07-11T06:25:48;99723.53;;;21.98;52.15
15604;BME280;7902;49.042;9.092;2022-07-11T06:28:14;99713.34;;;21.94;52.06
15604;BME280;7902;49.042;9.092;2022-07-11T06:30:40;99717.84;;;21.93;52.20
15604;BME280;7902;49.042;9.092;2022-07-11T06:33:06;99716.34;;;21.99;52.24
15604;BME280;7902;49.042;9.092;2022-07-11T06:35:32;99717.66;;;21.95;52.01
15604;BME280;7902;49.042;9.092;2022-07-11T06:37:58;99718.00;;;22.00;51.91
15604;BME280;7902;49.042;9.092;2022-07-11T06:40:24;99718.53;;;22.03;51.85
15604;BME280;7902;49.042;9.092;2022-07-11T06:42:50;99720.16;;;22.04;52.18
15604;BME280;7902;49.042;9.092;2022-07-11T06:45:16;99719.97;;;22.14;51.81
15604;BME280;7902;49.042;9.092;2022-07-11T06:47:42;99722.34;;;22.17;51.49
15604;BME280;7902;49.042;9.092;2022-07-11T06:50:08;99724.50;;;22.21;51.61
15604;BME280;7902;49.042;9.092;2022-07-11T06:52:34;99718.00;;;22.16;51.55
15604;BME280;7902;49.042;9.092;2022-07-11T06:55:01;99719.81;;;22.23;51.25
15604;BME280;7902;49.042;9.092;2022-07-11T06:57:27;99715.09;;;22.33;51.44
15604;BME280;7902;49.042;9.092;2022-07-11T06:59:53;99711.41;;;22.35;51.67
15604;BME280;7902;49.042;9.092;2022-07-11T07:02:19;99708.91;;;22.41;51.07
15604;BME280;7902;49.042;9.092;2022-07-11T07:04:45;99715.38;;;22.47;50.96
15604;BME280;7902;49.042;9.092;2022-07-11T07:07:11;99712.03;;;22.53;51.24
15604;BME280;7902;49.042;9.092;2022-07-11T07:09:37;99709.19;;;22.54;50.96
15604;BME280;7902;49.042;9.092;2022-07-11T07:12:03;99709.50;;;22.59;51.23
15604;BME280;7902;49.042;9.092;2022-07-11T07:14:29;99711.97;;;22.69;50.87
15604;BME280;7902;49.042;9.092;2022-07-11T07:16:55;99701.44;;;22.75;50.67
15604;BME280;7902;49.042;9.092;2022-07-11T07:19:21;99713.31;;;22.65;50.67
15604;BME280;7902;49.042;9.092;2022-07-11T07:21:47;99700.94;;;22.72;50.61
15604;BME280;7902;49.042;9.092;2022-07-11T07:24:13;99703.78;;;22.79;50.58
15604;BME280;7902;49.042;9.092;2022-07-11T07:26:39;99701.09;;;22.79;50.66
15604;BME280;7902;49.042;9.092;2022-07-11T07:29:05;99707.41;;;22.86;50.21
15604;BME280;7902;49.042;9.092;2022-07-11T07:31:31;99701.28;;;22.69;50.59
15604;BME280;7902;49.042;9.092;2022-07-11T07:33:56;99702.44;;;22.74;50.48
15604;BME280;7902;49.042;9.092;2022-07-11T07:36:22;99708.28;;;22.78;50.54
15604;BME280;7902;49.042;9.092;2022-07-11T07:38:48;99699.94;;;22.73;50.38
15604;BME280;7902;49.042;9.092;2022-07-11T07:41:15;99699.22;;;22.79;50.13
15604;BME280;7902;49.042;9.092;2022-07-11T07:43:42;99709.28;;;22.77;50.32
15604;BME280;7902;49.042;9.092;2022-07-11T07:46:08;99703.56;;;22.80;50.02
15604;BME280;7902;49.042;9.092;2022-07-11T07:48:37;99700.44;;;22.77;50.29
15604;BME280;7902;49.042;9.092;2022-07-11T07:51:04;99705.41;;;22.80;50.31
15604;BME280;7902;49.042;9.092;2022-07-11T07:53:30;99693.84;;;22.87;50.60
15604;BME280;7902;49.042;9.092;2022-07-11T07:55:55;99690.81;;;22.90;50.02
15604;BME280;7902;49.042;9.092;2022-07-11T07:58:21;99694.81;;;22.94;49.67
15604;BME280;7902;49.042;9.092;2022-07-11T08:00:47;99697.47;;;23.02;49.57
15604;BME280;7902;49.042;9.092;2022-07-11T08:03:32;99699.59;;;23.07;49.46
15604;BME280;7902;49.042;9.092;2022-07-11T08:05:58;99696.84;;;22.92;49.79
15604;BME280;7902;49.042;9.092;2022-07-11T08:08:24;99691.13;;;22.95;49.69
15604;BME280;7902;49.042;9.092;2022-07-11T08:10:49;99701.78;;;23.03;49.72
15604;BME280;7902;49.042;9.092;2022-07-11T08:13:18;99702.44;;;23.05;49.15
15604;BME280;7902;49.042;9.092;2022-07-11T08:15:44;99694.19;;;23.15;49.21
15604;BME280;7902;49.042;9.092;2022-07-11T08:18:10;99696.72;;;23.08;49.29
15604;BME280;7902;49.042;9.092;2022-07-11T08:20:36;99699.72;;;23.13;48.69
15604;BME280;7902;49.042;9.092;2022-07-11T08:23:02;99696.69;;;23.16;48.76
15604;BME280;7902;49.042;9.092;2022-07-11T08:25:30;99687.47;;;23.19;48.65
15604;BME280;7902;49.042;9.092;2022-07-11T08:27:56;99689.31;;;23.18;48.45
15604;BME280;7902;49.042;9.092;2022-07-11T08:30:22;99691.13;;;22.95;49.44
15604;BME280;7902;49.042;9.092;2022-07-11T08:32:48;99692.56;;;23.06;49.12
15604;BME280;7902;49.042;9.092;2022-07-11T08:35:13;99696.03;;;23.14;49.04
15604;BME280;7902;49.042;9.092;2022-07-11T08:37:43;99688.94;;;23.22;48.79
15604;BME280;7902;49.042;9.092;2022-07-11T08:40:09;99694.66;;;23.18;48.78
15604;BME280;7902;49.042;9.092;2022-07-11T08:42:45;99688.13;;;23.21;48.49
15604;BME280;7902;49.042;9.092;2022-07-11T08:45:15;99684.13;;;23.17;48.76
15604;BME280;7902;49.042;9.092;2022-07-11T08:47:42;99684.94;;;23.17;48.37
15604;BME280;7902;49.042;9.092;2022-07-11T08:50:10;99683.25;;;23.25;47.89
15604;BME280;7902;49.042;9.092;2022-07-11T08:52:37;99681.34;;;23.33;47.79
15604;BME280;7902;49.042;9.092;2022-07-11T08:55:04;99682.53;;;23.31;48.10
15604;BME280;7902;49.042;9.092;2022-07-11T08:57:33;99682.78;;;23.44;47.95
15604;BME280;7902;49.042;9.092;2022-07-11T09:00:02;99678.50;;;23.35;47.79
15604;BME280;7902;49.042;9.092;2022-07-11T09:02:29;99673.91;;;23.43;47.71
15604;BME280;7902;49.042;9.092;2022-07-11T09:04:55;99680.66;;;23.31;47.88
15604;BME280;7902;49.042;9.092;2022-07-11T09:07:21;99678.38;;;23.51;47.73
15604;BME280;7902;49.042;9.092;2022-07-11T09:09:47;99680.09;;;23.44;47.90
15604;BME280;7902;49.042;9.092;2022-07-11T09:12:17;99678.91;;;23.46;47.27
15604;BME280;7902;49.042;9.092;2022-07-11T09:14:48;99677.75;;;23.49;47.90
15604;BME280;7902;49.042;9.092;2022-07-11T09:17:14;99682.59;;;23.68;47.55
15604;BME280;7902;49.042;9.092;2022-07-11T09:19:41;99671.59;;;23.63;47.88
15604;BME280;7902;49.042;9.092;2022-07-11T09:22:09;99684.53;;;23.74;47.66
15604;BME280;7902;49.042;9.092;2022-07-11T09:25:08;99677.72;;;23.72;47.70
15604;BME280;7902;49.042;9.092;2022-07-11T09:27:59;99678.31;;;23.59;47.43
15604;BME280;7902;49.042;9.092;2022-07-11T09:30:36;99680.56;;;23.70;48.07
15604;BME280;7902;49.042;9.092;2022-07-11T09:33:07;99674.47;;;23.76;47.93
15604;BME280;7902;49.042;9.092;2022-07-11T09:35:36;99681.59;;;23.84;47.57
15604;BME280;7902;49.042;9.092;2022-07-11T09:38:07;99678.88;;;23.92;47.00
15604;BME280;7902;49.042;9.092;2022-07-11T09:40:35;99676.09;;;24.00;47.36
15604;BME280;7902;49.042;9.092;2022-07-11T09:43:02;99677.53;;;23.88;47.34
15604;BME280;7902;49.042;9.092;2022-07-11T09:45:31;99680.81;;;23.98;47.14
15604;BME280;7902;49.042;9.092;2022-07-11T09:47:59;99668.34;;;24.05;46.99
15604;BME280;7902;49.042;9.092;2022-07-11T09:50:28;99676.13;;;24.15;46.59
15604;BME280;7902;49.042;9.092;2022-07-11T09:53:08;99678.13;;;24.13;46.72
15604;BME280;7902;49.042;9.092;2022-07-11T09:55:39;99674.28;;;24.15;46.88
15604;BME280;7902;49.042;9.092;2022-07-11T09:58:06;99672.88;;;24.04;46.92
15604;BME280;7902;49.042;9.092;2022-07-11T10:00:33;99677.72;;;24.24;46.57
15604;BME280;7902;49.042;9.092;2022-07-11T10:02:59;99679.84;;;24.28;46.50
15604;BME280;7902;49.042;9.092;2022-07-11T10:05:26;99670.69;;;24.23;46.29
15604;BME280;7902;49.042;9.092;2022-07-11T10:07:52;99677.72;;;24.24;46.19
15604;BME280;7902;49.042;9.092;2022-07-11T10:10:18;99679.00;;;24.28;46.22
15604;BME280;7902;49.042;9.092;2022-07-11T10:12:45;99669.28;;;24.41;45.38
15604;BME280;7902;49.042;9.092;2022-07-11T10:15:15;99672.72;;;24.35;45.97
15604;BME280;7902;49.042;9.092;2022-07-11T10:22:50;99682.53;;;24.43;45.36
15604;BME280;7902;49.042;9.092;2022-07-11T10:25:28;99680.13;;;24.48;45.32
15604;BME280;7902;49.042;9.092;2022-07-11T10:28:14;99687.91;;;24.43;45.65
15604;BME280;7902;49.042;9.092;2022-07-11T10:30:53;99681.59;;;24.36;45.70
15604;BME280;7902;49.042;9.092;2022-07-11T10:33:21;99676.97;;;24.30;45.68
15604;BME280;7902;49.042;9.092;2022-07-11T10:35:50;99679.66;;;24.44;46.00
15604;BME280;7902;49.042;9.092;2022-07-11T10:38:17;99683.63;;;24.48;45.92
15604;BME280;7902;49.042;9.092;2022-07-11T10:40:54;99677.63;;;24.46;45.80
15604;BME280;7902;49.042;9.092;2022-07-11T10:43:37;99688.47;;;24.53;45.30
15604;BME280;7902;49.042;9.092;2022-07-11T10:46:09;99685.22;;;24.58;45.71
15604;BME280;7902;49.042;9.092;2022-07-11T10:51:22;99679.28;;;24.62;45.38
15604;BME280;7902;49.042;9.092;2022-07-11T10:53:50;99673.09;;;24.62;45.30
15604;BME280;7902;49.042;9.092;2022-07-11T10:56:33;99674.53;;;24.64;45.49
15604;BME280;7902;49.042;9.092;2022-07-11T10:59:14;99671.13;;;24.70;45.61
15604;BME280;7902;49.042;9.092;2022-07-11T11:02:09;99669.56;;;24.61;45.63
15604;BME280;7902;49.042;9.092;2022-07-11T11:09:54;99677.06;;;24.66;45.62
15604;BME280;7902;49.042;9.092;2022-07-11T11:26:49;99667.69;;;24.76;44.52
15604;BME280;7902;49.042;9.092;2022-07-11T11:29:20;99666.34;;;25.02;44.55
15604;BME280;7902;49.042;9.092;2022-07-11T11:31:51;99662.25;;;25.06;44.61
15604;BME280;7902;49.042;9.092;2022-07-11T11:34:17;99659.94;;;25.24;44.35
15604;BME280;7902;49.042;9.092;2022-07-11T11:36:43;99651.88;;;25.24;43.93
15604;BME280;7902;49.042;9.092;2022-07-11T11:39:10;99663.72;;;25.29;44.12
15604;BME280;7902;49.042;9.092;2022-07-11T11:41:36;99654.09;;;25.14;44.23
15604;BME280;7902;49.042;9.092;2022-07-11T11:44:02;99652.09;;;25.22;44.78
15604;BME280;7902;49.042;9.092;2022-07-11T11:46:30;99652.78;;;25.10;44.88
15604;BME280;7902;49.042;9.092;2022-07-11T11:48:58;99650.34;;;25.15;44.84
15604;BME280;7902;49.042;9.092;2022-07-11T11:51:27;99652.03;;;24.95;45.40
15604;BME280;7902;49.042;9.092;2022-07-11T11:53:55;99659.34;;;24.86;45.52
15604;BME280;7902;49.042;9.092;2022-07-11T11:56:21;99653.75;;;25.02;45.10
15604;BME280;7902;49.042;9.092;2022-07-11T11:58:48;99649.59;;;25.21;44.74
15604;BME280;7902;49.042;9.092;2022-07-11T12:01:21;99651.47;;;25.42;44.89
15604;BME280;7902;49.042;9.092;2022-07-11T12:03:58;99640.63;;;25.35;44.22
15604;BME280;7902;49.042;9.092;2022-07-11T12:06:32;99650.50;;;25.28;44.03
15604;BME280;7902;49.042;9.092;2022-07-11T12:09:03;99653.69;;;25.17;44.09
15604;BME280;7902;49.042;9.092;2022-07-11T12:11:29;99645.13;;;25.28;44.13
15604;BME280;7902;49.042;9.092;2022-07-11T12:14:01;99642.69;;;25.33;43.94
15604;BME280;7902;49.042;9.092;2022-07-11T12:16:28;99647.41;;;25.52;43.55
15604;BME280;7902;49.042;9.092;2022-07-11T12:21:42;99647.56;;;25.65;43.54
15604;BME280;7902;49.042;9.092;2022-07-11T12:24:20;99635.91;;;25.37;43.49
15604;BME280;7902;49.042;9.092;2022-07-11T12:26:47;99645.47;;;25.61;43.33
15604;BME280;7902;49.042;9.092;2022-07-11T12:29:14;99639.03;;;25.41;43.51
15604;BME280;7902;49.042;9.092;2022-07-11T12:31:50;99638.63;;;25.44;43.52
15604;BME280;7902;49.042;9.092;2022-07-11T12:37:03;99633.22;;;25.37;43.50
15604;BME280;7902;49.042;9.092;2022-07-11T12:39:32;99638.59;;;25.37;43.67
15604;BME280;7902;49.042;9.092;2022-07-11T12:41:59;99638.31;;;25.53;43.24
15604;BME280;7902;49.042;9.092;2022-07-11T12:44:31;99632.91;;;25.47;43.60
15604;BME280;7902;49.042;9.092;2022-07-11T12:47:23;99644.41;;;25.41;43.48
15604;BME280;7902;49.042;9.092;2022-07-11T12:49:51;99633.84;;;25.39;43.55
15604;BME280;7902;49.042;9.092;2022-07-11T12:52:17;99637.94;;;25.35;44.17
15604;BME280;7902;49.042;9.092;2022-07-11T12:54:44;99638.88;;;25.49;43.83
15604;BME280;7902;49.042;9.092;2022-07-11T12:57:16;99639.63;;;25.36;44.22
15604;BME280;7902;49.042;9.092;2022-07-11T12:59:43;99638.41;;;25.17;44.70
15604;BME280;7902;49.042;9.092;2022-07-11T13:02:11;99633.84;;;25.39;44.35
15604;BME280;7902;49.042;9.092;2022-07-11T13:04:39;99633.84;;;25.39;44.37
15604;BME280;7902;49.042;9.092;2022-07-11T13:07:28;99631.56;;;25.36;44.29
15604;BME280;7902;49.042;9.092;2022-07-11T13:10:21;99635.75;;;25.45;44.16
15604;BME280;7902;49.042;9.092;2022-07-11T13:12:49;99624.91;;;25.32;44.39
15604;BME280;7902;49.042;9.092;2022-07-11T13:15:16;99623.75;;;25.41;44.39
15604;BME280;7902;49.042;9.092;2022-07-11T13:20:10;99632.09;;;25.53;44.25
15604;BME280;7902;49.042;9.092;2022-07-11T13:22:40;99631.53;;;25.57;44.15
15604;BME280;7902;49.042;9.092;2022-07-11T13:25:06;99629.25;;;25.54;44.01
15604;BME280;7902;49.042;9.092;2022-07-11T13:27:32;99630.53;;;25.58;44.14
15604;BME280;7902;49.042;9.092;2022-07-11T13:30:00;99625.88;;;25.52;44.76
15604;BME280;7902;49.042;9.092;2022-07-11T13:32:26;99629.91;;;25.84;43.57
15604;BME280;7902;49.042;9.092;2022-07-11T13:34:52;99627.50;;;25.47;44.31
15604;BME280;7902;49.042;9.092;2022-07-11T13:37:18;99624.53;;;25.56;44.33
15604;BME280;7902;49.042;9.092;2022-07-11T13:39:44;99625.53;;;25.34;44.67
15604;BME280;7902;49.042;9.092;2022-07-11T13:44:38;99625.19;;;25.44;44.37
15604;BME280;7902;49.042;9.092;2022-07-11T13:47:04;99618.97;;;25.43;44.48
15604;BME280;7902;49.042;9.092;2022-07-11T13:49:30;99622.13;;;25.47;44.47
15604;BME280;7902;49.042;9.092;2022-07-11T13:51:56;99622.84;;;25.55;44.48